Time;durP1;ratioP1;P1;durP2;ratioP2;P2;SDS_P1;SDS_P2;PMS_P1;PMS_P2;Temp;Humidity;BMP_temperature;BMP_pressure;BME280_temperature;BME280_humidity;BME280_pressure;Samples;Min_cycle;Max_cycle;Signal;HPM_P1;HPM_P2
2021/12/10 00:00:58;;;;;;;130.20;86.53;;;180.10;2252.80;;;;;;5093109;28;20024;-86
2021/12/10 00:03:29;;;;;;;124.82;83.07;;;180.10;2252.80;;;;;;5092844;28;20073;-86
2021/12/10 00:06:21;;;;;;;114.35;79.13;;;180.10;2252.80;;;;;;5092976;28;20024;-84
2021/12/10 00:08:55;;;;;;;140.33;84.27;;;180.10;2252.80;;;;;;5092779;28;20119;-87
2021/12/10 00:11:32;;;;;;;162.13;97.80;;;180.10;2252.80;;;;;;5103025;28;20264;-85
2021/12/10 00:13:59;;;;;;;145.85;93.07;;;180.00;2252.80;;;;;;5121676;28;20019;-86
2021/12/10 00:16:25;;;;;;;133.70;85.43;;;179.90;2252.80;;;;;;5121365;28;20004;-83
2021/12/10 00:18:57;;;;;;;116.80;77.75;;;179.90;2252.80;;;;;;5121053;28;20016;-82
2021/12/10 00:21:26;;;;;;;109.33;72.50;;;180.00;2252.80;;;;;;5115747;28;20032;-88
2021/12/10 00:23:54;;;;;;;191.98;116.07;;;180.00;2252.80;;;;;;5096479;28;20024;-85
2021/12/10 00:26:22;;;;;;;169.18;105.38;;;180.00;2252.80;;;;;;5096193;28;20024;-86
2021/12/10 00:28:50;;;;;;;148.60;94.10;;;180.00;1894.40;;;;;;5096211;28;20028;-84
2021/12/10 00:31:32;;;;;;;126.13;84.70;;;180.00;2252.80;;;;;;5096316;28;20028;-88
2021/12/10 00:34:09;;;;;;;170.00;109.63;;;180.10;2252.80;;;;;;5096098;28;20059;-85
2021/12/10 00:36:36;;;;;;;172.18;111.50;;;180.00;2252.80;;;;;;5096138;28;20020;-86
2021/12/10 00:39:17;;;;;;;167.55;105.28;;;180.00;2252.80;;;;;;5096861;28;20058;-85
2021/12/10 00:41:43;;;;;;;151.60;95.30;;;180.00;2252.80;;;;;;5096189;28;20165;-85
2021/12/10 00:44:09;;;;;;;134.18;90.80;;;180.10;2252.80;;;;;;5095852;28;20115;-85
2021/12/10 00:46:35;;;;;;;150.52;104.05;;;180.10;2252.80;;;;;;5095853;28;20122;-86
2021/12/10 00:49:02;;;;;;;146.80;103.70;;;180.10;2252.80;;;;;;5096126;28;20028;-86
2021/12/10 00:51:27;;;;;;;159.55;110.15;;;180.10;2252.80;;;;;;5097051;28;20028;-87
2021/12/10 00:53:54;;;;;;;171.25;115.05;;;180.00;2252.80;;;;;;5095534;28;20027;-87
2021/12/10 00:56:20;;;;;;;159.23;105.95;;;180.00;2252.80;;;;;;5095885;28;20027;-87
2021/12/10 00:58:46;;;;;;;159.05;110.30;;;180.10;2252.80;;;;;;5095874;28;20114;-86
2021/12/10 01:01:18;;;;;;;168.02;111.22;;;180.10;2252.80;;;;;;5095371;28;20035;-87
2021/12/10 01:03:49;;;;;;;194.95;132.00;;;180.00;2252.80;;;;;;5095574;28;20024;-85
2021/12/10 01:06:17;;;;;;;186.60;124.57;;;180.00;2252.80;;;;;;5095577;28;20020;-85
2021/12/10 01:08:46;;;;;;;217.38;146.65;;;180.10;2252.80;;;;;;5095381;28;20024;-87
2021/12/10 01:11:22;;;;;;;214.93;143.63;;;180.00;2252.80;;;;;;5095433;28;20024;-85
2021/12/10 01:13:52;;;;;;;235.73;152.75;;;180.00;2252.80;;;;;;5094948;28;20020;-87
2021/12/10 01:24:37;;;;;;;216.70;133.60;;;180.00;2252.80;;;;;;5096353;28;20023;-85
2021/12/10 01:27:14;;;;;;;221.85;134.88;;;180.00;2252.80;;;;;;5095172;28;20026;-84
2021/12/10 01:29:45;;;;;;;237.73;149.02;;;180.00;2252.80;;;;;;5096191;28;20020;-86
2021/12/10 01:32:15;;;;;;;264.15;169.57;;;180.00;2252.80;;;;;;5095006;28;20131;-84
2021/12/10 01:34:42;;;;;;;238.82;151.25;;;179.80;1971.20;;;;;;5094863;28;20020;-84
2021/12/10 01:37:09;;;;;;;222.65;144.82;;;179.90;2252.80;;;;;;5094719;28;20054;-87
2021/12/10 01:39:37;;;;;;;208.30;135.93;;;180.00;2252.80;;;;;;5096203;28;20020;-85
2021/12/10 01:42:20;;;;;;;213.70;139.45;;;180.00;2252.80;;;;;;5095058;28;20112;-86
2021/12/10 01:44:52;;;;;;;230.95;152.00;;;180.00;2252.80;;;;;;5094958;28;20020;-87
2021/12/10 01:47:22;;;;;;;223.80;145.45;;;179.90;2252.80;;;;;;5094729;28;20124;-87
2021/12/10 01:49:48;;;;;;;216.20;140.27;;;179.90;2252.80;;;;;;5094768;28;20046;-88
2021/12/10 01:52:16;;;;;;;208.20;134.25;;;179.90;2252.80;;;;;;5094623;28;20027;-86
2021/12/10 01:54:47;;;;;;;157.45;104.43;;;179.90;2252.80;;;;;;5094832;28;20028;-87
2021/12/10 01:57:15;;;;;;;142.38;98.13;;;179.90;2252.80;;;;;;5094619;28;20024;-86
2021/12/10 01:59:43;;;;;;;121.95;81.45;;;179.90;2252.80;;;;;;5094474;28;20020;-86
2021/12/10 02:02:17;;;;;;;130.10;84.68;;;179.90;2252.80;;;;;;5094450;28;20477;-86
2021/12/10 02:04:44;;;;;;;131.43;84.43;;;179.90;2252.80;;;;;;5094387;28;20024;-86
2021/12/10 02:07:13;;;;;;;125.75;83.15;;;180.00;2252.80;;;;;;5093674;28;20023;-86
2021/12/10 02:09:39;;;;;;;151.38;96.90;;;180.00;2252.80;;;;;;5094413;28;20454;-86
2021/12/10 02:12:06;;;;;;;152.90;101.43;;;180.00;2252.80;;;;;;5094098;28;20027;-85
2021/12/10 02:14:32;;;;;;;210.65;138.60;;;179.90;2252.80;;;;;;5094128;28;20024;-85
2021/12/10 02:16:59;;;;;;;221.45;144.85;;;179.80;2252.80;;;;;;5094011;28;20161;-87
2021/12/10 02:19:26;;;;;;;214.68;141.73;;;179.70;2099.20;;;;;;5093989;28;20372;-84
2021/12/10 02:21:52;;;;;;;215.95;137.48;;;179.70;2252.80;;;;;;5093926;28;20032;-87
2021/12/10 02:24:18;;;;;;;209.00;140.20;;;179.80;2252.80;;;;;;5094105;28;20078;-85
2021/12/10 02:26:57;;;;;;;207.65;137.80;;;179.40;2252.80;;;;;;5095118;28;20020;-85
2021/12/10 02:29:27;;;;;;;192.20;124.53;;;179.70;1971.20;;;;;;5093752;28;20024;-85
2021/12/10 02:31:54;;;;;;;167.25;115.78;;;179.70;2252.80;;;;;;5093678;28;20432;-84
2021/12/10 02:34:20;;;;;;;152.73;105.68;;;179.70;2252.80;;;;;;5093064;28;20111;-84
2021/12/10 02:36:47;;;;;;;157.98;109.75;;;179.80;2252.80;;;;;;5093876;28;20368;-84
2021/12/10 02:39:18;;;;;;;165.75;111.47;;;179.60;2252.80;;;;;;5093582;28;20048;-84
2021/12/10 02:41:44;;;;;;;163.38;107.72;;;179.50;2252.80;;;;;;5093944;28;20046;-86
2021/12/10 02:44:15;;;;;;;115.18;80.47;;;179.60;2252.80;;;;;;5093728;28;20031;-85
2021/12/10 02:46:41;;;;;;;103.30;70.07;;;179.50;2252.80;;;;;;5093714;28;20062;-87
2021/12/10 02:49:09;;;;;;;148.00;98.57;;;179.50;2252.80;;;;;;5094804;28;20027;-87
2021/12/10 02:51:36;;;;;;;143.75;95.70;;;179.60;2252.80;;;;;;5093788;28;20055;-84
2021/12/10 02:54:06;;;;;;;117.43;81.13;;;179.50;2252.80;;;;;;5093283;28;20027;-84
2021/12/10 02:56:32;;;;;;;144.48;97.88;;;179.60;2252.80;;;;;;5093408;28;20020;-87
2021/12/10 02:58:59;;;;;;;137.50;95.78;;;179.60;1971.20;;;;;;5094564;28;20205;-88
2021/12/10 03:01:28;;;;;;;145.85;95.75;;;179.50;2252.80;;;;;;5093486;28;20404;-85
2021/12/10 03:03:54;;;;;;;133.52;89.88;;;179.50;2252.80;;;;;;5093514;28;20027;-86
2021/12/10 03:06:21;;;;;;;125.32;87.18;;;179.60;2252.80;;;;;;5094581;28;20093;-85
2021/12/10 03:08:51;;;;;;;111.70;76.95;;;179.70;2252.80;;;;;;5093534;28;20375;-84
2021/12/10 03:11:20;;;;;;;107.10;73.60;;;179.70;2252.80;;;;;;5093338;28;20051;-83
2021/12/10 03:13:46;;;;;;;106.53;73.93;;;179.70;2252.80;;;;;;5093114;28;20023;-83
2021/12/10 03:16:13;;;;;;;105.95;74.57;;;180.10;2252.80;;;;;;5093362;28;20093;-84
2021/12/10 03:18:39;;;;;;;103.80;71.40;;;179.70;2252.80;;;;;;5093216;28;20016;-86
2021/12/10 03:21:09;;;;;;;95.50;66.38;;;179.70;2252.80;;;;;;5093146;28;20078;-84
2021/12/10 03:23:42;;;;;;;93.93;62.97;;;179.70;2252.80;;;;;;5093283;28;20489;-85
2021/12/10 03:26:13;;;;;;;77.68;54.90;;;179.70;2252.80;;;;;;5093540;28;20020;-85
2021/12/10 03:28:41;;;;;;;70.72;48.92;;;179.70;2252.80;;;;;;5093126;28;20019;-85
2021/12/10 03:31:07;;;;;;;77.72;54.63;;;179.70;2252.80;;;;;;5093141;28;20379;-84
2021/12/10 03:33:35;;;;;;;90.95;63.17;;;179.80;2252.80;;;;;;5093124;28;20165;-85
2021/12/10 03:36:00;;;;;;;104.30;72.43;;;179.70;2252.80;;;;;;5093043;28;20023;-85
2021/12/10 03:38:27;;;;;;;112.40;78.70;;;179.70;2252.80;;;;;;5092938;28;20040;-86
2021/12/10 03:40:53;;;;;;;127.43;86.43;;;179.20;2201.60;;;;;;5093179;28;20130;-86
2021/12/10 03:43:21;;;;;;;121.47;84.00;;;179.40;2252.80;;;;;;5093267;28;20051;-85
2021/12/10 03:45:51;;;;;;;115.07;80.82;;;179.40;2252.80;;;;;;5095314;28;20017;-88
2021/12/10 03:48:24;;;;;;;118.38;79.10;;;179.40;2252.80;;;;;;5097002;28;20027;-86
2021/12/10 03:50:51;;;;;;;131.63;93.80;;;179.50;2176.00;;;;;;5097288;28;20148;-86
2021/12/10 03:53:18;;;;;;;122.53;85.78;;;179.50;1996.80;;;;;;5097325;28;20122;-85
2021/12/10 03:55:46;;;;;;;124.30;82.85;;;179.60;2252.80;;;;;;5096954;28;20459;-88
2021/12/10 03:58:12;;;;;;;108.00;73.55;;;179.60;2252.80;;;;;;5098404;28;20588;-86
2021/12/10 04:00:42;;;;;;;89.40;62.78;;;179.60;2252.80;;;;;;5096870;28;20034;-86
2021/12/10 04:03:09;;;;;;;77.00;56.35;;;179.60;2252.80;;;;;;5096877;28;20024;-88
2021/12/10 04:05:35;;;;;;;85.03;57.33;;;179.60;2252.80;;;;;;5096618;28;20027;-87
2021/12/10 04:08:02;;;;;;;96.78;61.35;;;179.60;2252.80;;;;;;5096910;28;20016;-86
2021/12/10 04:10:28;;;;;;;79.82;54.22;;;179.70;2252.80;;;;;;5096737;28;20027;-86
2021/12/10 04:12:55;;;;;;;76.20;51.50;;;179.70;2252.80;;;;;;5096574;28;20020;-85
2021/12/10 04:15:22;;;;;;;76.65;51.75;;;179.70;2252.80;;;;;;5097808;28;20012;-87
2021/12/10 04:17:54;;;;;;;80.35;53.67;;;179.70;2252.80;;;;;;5096468;28;20024;-87
2021/12/10 04:20:22;;;;;;;72.53;49.72;;;179.70;2252.80;;;;;;5096405;28;20050;-84
2021/12/10 04:22:48;;;;;;;75.88;50.17;;;179.60;2252.80;;;;;;5096345;28;20172;-86
2021/12/10 04:25:18;;;;;;;104.78;63.08;;;179.50;1920.00;;;;;;5096494;28;20020;-85
2021/12/10 04:27:46;;;;;;;107.65;68.70;;;179.40;2201.60;;;;;;5096330;28;20016;-87
2021/12/10 04:30:13;;;;;;;101.47;64.10;;;179.40;1894.40;;;;;;5097514;28;20058;-86
2021/12/10 04:32:41;;;;;;;88.05;58.65;;;179.50;2252.80;;;;;;5096302;28;20020;-85
2021/12/10 04:35:08;;;;;;;75.05;50.75;;;179.50;2252.80;;;;;;5096123;28;20020;-86
2021/12/10 04:37:34;;;;;;;77.43;54.40;;;179.50;2252.80;;;;;;5095815;28;20043;-87
2021/12/10 04:40:03;;;;;;;103.72;72.03;;;179.50;2252.80;;;;;;5096013;28;20024;-87
2021/12/10 04:42:30;;;;;;;78.90;53.63;;;179.40;2252.80;;;;;;5096085;28;20027;-85
2021/12/10 04:44:58;;;;;;;79.63;51.50;;;179.40;1894.40;;;;;;5095853;28;20035;-85
2021/12/10 04:47:25;;;;;;;93.72;65.00;;;179.30;2252.80;;;;;;5097153;28;20110;-86
2021/12/10 04:49:51;;;;;;;86.30;59.28;;;179.50;2252.80;;;;;;5095942;28;20077;-87
2021/12/10 04:52:18;;;;;;;83.32;57.38;;;179.40;2252.80;;;;;;5095482;28;20016;-86
2021/12/10 04:54:44;;;;;;;80.38;59.03;;;179.50;2252.80;;;;;;5095807;28;20111;-84
2021/12/10 04:57:10;;;;;;;83.00;56.83;;;179.40;2252.80;;;;;;5094487;28;20024;-84
2021/12/10 04:59:37;;;;;;;84.10;61.35;;;179.40;2252.80;;;;;;5095395;28;20020;-85
2021/12/10 05:02:08;;;;;;;89.40;62.75;;;179.40;2252.80;;;;;;5095550;28;20028;-85
2021/12/10 05:04:34;;;;;;;100.10;71.03;;;179.40;2252.80;;;;;;5095892;28;20022;-86
2021/12/10 05:07:02;;;;;;;102.10;68.88;;;179.40;2252.80;;;;;;5095366;28;20119;-85
2021/12/10 05:09:28;;;;;;;131.50;88.10;;;179.40;2252.80;;;;;;5095380;28;20119;-85
2021/12/10 05:11:57;;;;;;;137.80;95.80;;;179.40;2252.80;;;;;;5095322;28;20024;-85
2021/12/10 05:14:24;;;;;;;121.25;86.57;;;179.40;2252.80;;;;;;5095423;28;20118;-87
2021/12/10 05:16:52;;;;;;;109.32;79.53;;;179.40;2252.80;;;;;;5095262;28;20023;-85
2021/12/10 05:19:21;;;;;;;118.20;90.38;;;179.30;2252.80;;;;;;5095652;28;20655;-87
2021/12/10 05:21:49;;;;;;;101.40;77.38;;;179.40;2252.80;;;;;;5095458;28;20028;-86
2021/12/10 05:24:15;;;;;;;112.32;79.55;;;179.30;2252.80;;;;;;5095302;28;20371;-85
2021/12/10 05:26:42;;;;;;;105.20;78.13;;;179.30;2252.80;;;;;;5095017;28;20076;-87
2021/12/10 05:29:08;;;;;;;118.13;78.25;;;179.20;2252.80;;;;;;5095270;28;20020;-83
2021/12/10 05:31:39;;;;;;;126.72;88.30;;;179.20;2252.80;;;;;;5095077;28;20047;-86
2021/12/10 05:34:06;;;;;;;127.68;82.00;;;154.50;2252.80;;;;;;5094882;28;20020;-84
2021/12/10 05:36:32;;;;;;;99.38;68.50;;;154.50;2252.80;;;;;;5095187;28;20043;-87
2021/12/10 05:38:58;;;;;;;91.88;63.92;;;154.40;2252.80;;;;;;5094489;28;20395;-85
2021/12/10 05:41:24;;;;;;;71.78;50.65;;;154.50;2252.80;;;;;;5094717;28;20122;-87
2021/12/10 05:43:50;;;;;;;61.05;40.95;;;154.40;2252.80;;;;;;5094796;28;20016;-86
2021/12/10 05:46:17;;;;;;;52.47;38.05;;;154.40;2252.80;;;;;;5094927;28;20020;-84
2021/12/10 05:48:44;;;;;;;45.13;31.75;;;154.30;2252.80;;;;;;5094518;28;20132;-86
2021/12/10 05:51:10;;;;;;;38.42;29.02;;;154.30;1920.00;;;;;;5094578;28;20027;-86
2021/12/10 05:53:36;;;;;;;66.00;44.00;;;154.20;2252.80;;;;;;5094675;28;20024;-86
2021/12/10 05:56:03;;;;;;;56.22;39.03;;;154.20;2124.80;;;;;;5094312;28;20024;-88
2021/12/10 05:58:29;;;;;;;53.22;37.90;;;179.20;1996.80;;;;;;5094859;28;20016;-85
2021/12/10 06:01:01;;;;;;;76.45;50.05;;;154.30;2252.80;;;;;;5095093;28;20031;-84
2021/12/10 06:03:26;;;;;;;73.80;51.30;;;154.20;1971.20;;;;;;5094929;28;20023;-86
2021/12/10 06:05:53;;;;;;;68.72;45.70;;;154.30;1894.40;;;;;;5095439;28;20024;-87
2021/12/10 06:08:19;;;;;;;96.82;65.82;;;154.20;2048.00;;;;;;5094483;28;20016;-86
2021/12/10 06:10:46;;;;;;;129.27;88.47;;;154.30;2252.80;;;;;;5094567;28;20482;-85
2021/12/10 06:13:12;;;;;;;137.73;93.88;;;154.20;2048.00;;;;;;5094499;28;20027;-84
2021/12/10 06:15:39;;;;;;;145.52;98.43;;;154.30;1894.40;;;;;;5094422;28;20521;-84
2021/12/10 06:18:06;;;;;;;175.73;116.15;;;154.40;2252.80;;;;;;5094232;28;20024;-84
2021/12/10 06:20:37;;;;;;;172.13;110.28;;;154.40;2252.80;;;;;;5093897;28;20344;-85
2021/12/10 06:23:05;;;;;;;167.55;104.38;;;154.20;2252.80;;;;;;5093820;28;20355;-84
2021/12/10 06:25:32;;;;;;;266.00;173.27;;;154.20;2252.80;;;;;;5094134;28;20020;-85
2021/12/10 06:27:58;;;;;;;230.85;153.93;;;154.30;2252.80;;;;;;5094068;28;20047;-85
2021/12/10 06:30:29;;;;;;;226.95;157.32;;;154.30;2252.80;;;;;;5093932;28;20034;-85
2021/12/10 06:32:57;;;;;;;195.50;133.68;;;154.20;2252.80;;;;;;5094038;28;20023;-84
2021/12/10 06:35:25;;;;;;;177.68;121.93;;;154.20;1971.20;;;;;;5093916;28;20048;-86
2021/12/10 06:37:53;;;;;;;135.90;95.50;;;154.30;2252.80;;;;;;5093140;28;20040;-87
2021/12/10 06:40:22;;;;;;;112.50;78.90;;;154.30;2252.80;;;;;;5093770;28;20413;-87
2021/12/10 06:42:50;;;;;;;121.65;85.38;;;154.10;2252.80;;;;;;5093604;28;20080;-85
2021/12/10 06:45:21;;;;;;;159.82;104.88;;;154.10;2252.80;;;;;;5094078;28;20031;-86
2021/12/10 06:47:50;;;;;;;134.10;90.45;;;154.10;2252.80;;;;;;5095215;28;20023;-86
2021/12/10 06:50:21;;;;;;;131.48;86.05;;;154.10;2252.80;;;;;;5093575;28;20035;-86
2021/12/10 06:52:48;;;;;;;172.27;121.20;;;154.20;2252.80;;;;;;5093893;28;20031;-84
2021/12/10 06:55:14;;;;;;;178.90;131.38;;;154.20;2252.80;;;;;;5093527;28;20463;-85
2021/12/10 06:57:40;;;;;;;130.63;92.68;;;154.00;2252.80;;;;;;5093564;28;20355;-85
2021/12/10 07:00:15;;;;;;;115.18;81.05;;;154.00;2252.80;;;;;;5093657;28;20102;-86
2021/12/10 07:02:41;;;;;;;110.75;78.22;;;154.10;2252.80;;;;;;5093668;28;20024;-87
2021/12/10 07:05:07;;;;;;;127.30;96.07;;;154.00;2022.40;;;;;;5093341;28;20034;-87
2021/12/10 07:07:33;;;;;;;174.40;131.15;;;154.10;2252.80;;;;;;5093564;28;20024;-85
2021/12/10 07:10:00;;;;;;;128.15;94.88;;;154.10;2252.80;;;;;;5093286;28;20016;-84
2021/12/10 07:12:26;;;;;;;161.05;113.18;;;154.20;2252.80;;;;;;5093417;28;20447;-84
2021/12/10 07:14:53;;;;;;;162.68;120.20;;;179.40;2252.80;;;;;;5094411;28;20036;-86
2021/12/10 07:17:18;;;;;;;185.82;138.10;;;154.50;2252.80;;;;;;5093452;28;20024;-86
2021/12/10 07:19:44;;;;;;;159.43;113.90;;;154.50;2099.20;;;;;;5093349;28;20359;-85
2021/12/10 07:22:11;;;;;;;193.75;150.77;;;179.20;2252.80;;;;;;5097394;28;20122;-84
2021/12/10 07:24:37;;;;;;;167.73;120.53;;;179.30;2252.80;;;;;;5097289;28;20024;-85
2021/12/10 07:27:06;;;;;;;146.13;105.53;;;179.30;2150.40;;;;;;5096865;28;20031;-86
2021/12/10 07:29:31;;;;;;;125.63;84.20;;;179.40;2124.80;;;;;;5097592;28;20027;-85
2021/12/10 07:31:57;;;;;;;117.75;84.97;;;179.60;1894.40;;;;;;5097269;28;20024;-89
2021/12/10 07:34:23;;;;;;;109.45;77.63;;;179.70;2252.80;;;;;;5097267;28;20452;-85
2021/12/10 07:36:49;;;;;;;101.85;75.28;;;179.70;2252.80;;;;;;5098522;28;20153;-86
2021/12/10 07:39:15;;;;;;;110.28;87.57;;;179.70;2252.80;;;;;;5097068;28;20054;-86
2021/12/10 07:41:41;;;;;;;106.65;79.13;;;179.90;2252.80;;;;;;5097214;28;20581;-87
2021/12/10 07:44:07;;;;;;;102.43;74.75;;;179.90;2252.80;;;;;;5096951;28;20026;-87
2021/12/10 07:46:34;;;;;;;93.88;69.05;;;205.00;2252.80;;;;;;5097029;28;20467;-85
2021/12/10 07:49:00;;;;;;;121.47;89.00;;;180.10;2252.80;;;;;;5096975;28;20409;-86
2021/12/10 07:51:28;;;;;;;89.55;65.68;;;204.80;2252.80;;;;;;5096923;28;20118;-85
2021/12/10 07:53:57;;;;;;;94.28;68.97;;;180.10;2252.80;;;;;;5096786;28;20024;-84
2021/12/10 07:56:25;;;;;;;106.13;76.82;;;204.90;2252.80;;;;;;5096633;28;20028;-85
2021/12/10 07:58:52;;;;;;;112.65;80.50;;;204.80;2252.80;;;;;;5096986;28;20020;-85
2021/12/10 08:01:21;;;;;;;109.95;78.40;;;204.90;2252.80;;;;;;5096970;28;20060;-86
2021/12/10 08:03:47;;;;;;;119.82;84.65;;;204.90;2252.80;;;;;;5096825;28;20032;-85
2021/12/10 08:06:14;;;;;;;148.27;103.55;;;204.90;2252.80;;;;;;5096883;28;20119;-84
2021/12/10 08:08:40;;;;;;;124.78;88.90;;;204.90;2252.80;;;;;;5096862;28;20023;-86
2021/12/10 08:11:06;;;;;;;117.93;83.47;;;204.90;2252.80;;;;;;5096526;28;20030;-85
2021/12/10 08:13:32;;;;;;;112.32;81.82;;;205.10;2252.80;;;;;;5096876;28;20513;-83
2021/12/10 08:15:58;;;;;;;109.47;79.53;;;205.20;2252.80;;;;;;5096796;28;20024;-85
2021/12/10 08:18:24;;;;;;;103.50;75.47;;;205.20;2252.80;;;;;;5096483;28;20069;-85
2021/12/10 08:20:50;;;;;;;114.82;85.97;;;205.30;2252.80;;;;;;5096528;28;20115;-85
2021/12/10 08:23:19;;;;;;;84.07;62.15;;;205.50;2252.80;;;;;;5096364;28;20020;-86
2021/12/10 08:25:46;;;;;;;54.47;40.47;;;205.50;2252.80;;;;;;5096215;28;20356;-85
2021/12/10 08:28:12;;;;;;;62.53;47.60;;;205.50;2252.80;;;;;;5096476;28;20112;-87
2021/12/10 08:30:40;;;;;;;70.53;55.47;;;205.60;2252.80;;;;;;5097342;28;20059;-85
2021/12/10 08:33:12;;;;;;;86.45;67.55;;;205.60;2252.80;;;;;;5096145;28;20030;-87
2021/12/10 08:35:42;;;;;;;93.95;71.25;;;205.50;2252.80;;;;;;5109271;28;20008;-83
2021/12/10 08:38:08;;;;;;;76.03;56.75;;;205.60;2252.80;;;;;;5120638;28;20051;-83
2021/12/10 08:40:38;;;;;;;68.85;49.60;;;205.70;2252.80;;;;;;5121321;28;20016;-84
2021/12/10 08:43:04;;;;;;;96.18;67.03;;;230.40;2252.80;;;;;;5121017;28;20030;-85
2021/12/10 08:45:31;;;;;;;92.93;68.43;;;230.40;2252.80;;;;;;5120042;28;20024;-83
2021/12/10 08:47:57;;;;;;;78.28;56.95;;;205.70;2252.80;;;;;;5098977;28;20056;-87
2021/12/10 08:50:26;;;;;;;72.28;53.30;;;230.40;2252.80;;;;;;5095881;28;20572;-86
2021/12/10 08:52:57;;;;;;;86.35;63.53;;;230.40;2252.80;;;;;;5095607;28;20032;-84
2021/12/10 08:55:24;;;;;;;107.35;67.70;;;230.40;2252.80;;;;;;5095810;28;20114;-86
2021/12/10 08:57:50;;;;;;;118.25;80.03;;;230.40;2252.80;;;;;;5095736;28;20041;-85
2021/12/10 09:00:17;;;;;;;99.45;67.57;;;205.70;2252.80;;;;;;5095415;28;20360;-86
2021/12/10 09:02:43;;;;;;;79.38;56.58;;;205.70;2252.80;;;;;;5095660;28;20019;-86
2021/12/10 09:05:12;;;;;;;87.90;54.42;;;205.70;2252.80;;;;;;5095673;28;20443;-86
2021/12/10 09:07:38;;;;;;;60.78;44.97;;;205.70;2252.80;;;;;;5095000;28;20031;-84
2021/12/10 09:10:08;;;;;;;90.63;59.80;;;205.70;2252.80;;;;;;5095470;28;20028;-85
2021/12/10 09:12:37;;;;;;;85.93;60.08;;;205.70;2252.80;;;;;;5096328;28;20111;-84
2021/12/10 09:15:06;;;;;;;95.72;70.03;;;205.70;2252.80;;;;;;5095204;28;20028;-84
2021/12/10 09:17:33;;;;;;;76.20;52.05;;;205.70;2252.80;;;;;;5095171;28;20052;-87
2021/12/10 09:20:03;;;;;;;80.43;53.25;;;205.70;2252.80;;;;;;5096289;28;20074;-85
2021/12/10 09:22:29;;;;;;;94.60;62.45;;;205.70;2252.80;;;;;;5095147;28;20024;-85
2021/12/10 09:24:56;;;;;;;93.18;57.90;;;205.70;2252.80;;;;;;5095088;28;20088;-84
2021/12/10 09:27:23;;;;;;;97.90;63.75;;;205.70;2252.80;;;;;;5094983;28;20020;-85
2021/12/10 09:29:52;;;;;;;88.80;57.03;;;205.70;2252.80;;;;;;5095150;28;20105;-82
2021/12/10 09:32:20;;;;;;;102.35;72.32;;;205.70;2252.80;;;;;;5095015;28;20452;-84
2021/12/10 09:34:47;;;;;;;83.47;53.58;;;230.40;2252.80;;;;;;5094611;28;20061;-84
2021/12/10 09:37:15;;;;;;;88.72;54.90;;;230.40;2252.80;;;;;;5094542;28;20031;-85
2021/12/10 09:39:41;;;;;;;83.88;52.83;;;205.70;2252.80;;;;;;5095063;28;20016;-85
2021/12/10 09:42:07;;;;;;;83.80;56.55;;;205.70;2252.80;;;;;;5094643;28;20470;-85
2021/12/10 09:44:34;;;;;;;94.22;57.33;;;230.40;2252.80;;;;;;5094355;28;20055;-85
2021/12/10 09:47:00;;;;;;;84.43;53.10;;;230.40;2252.80;;;;;;5094610;28;20027;-85
2021/12/10 09:49:28;;;;;;;101.93;62.88;;;230.40;2252.80;;;;;;5094338;28;20020;-87
2021/12/10 09:52:00;;;;;;;104.38;63.30;;;230.40;2252.80;;;;;;5094459;28;20408;-82
2021/12/10 09:54:28;;;;;;;89.28;62.17;;;230.50;2252.80;;;;;;5094295;28;20414;-80
2021/12/10 09:57:04;;;;;;;90.25;58.95;;;230.50;2252.80;;;;;;5093973;28;20457;-82
2021/12/10 09:59:31;;;;;;;107.40;67.97;;;230.50;2252.80;;;;;;5094327;28;20483;-84
2021/12/10 10:01:59;;;;;;;102.50;65.15;;;230.60;2252.80;;;;;;5095408;28;20054;-85
2021/12/10 10:04:28;;;;;;;78.53;51.40;;;230.60;2252.80;;;;;;5093982;28;20023;-84
2021/12/10 10:06:59;;;;;;;80.15;49.40;;;230.80;2252.80;;;;;;5094216;28;20023;-81
2021/12/10 10:09:26;;;;;;;101.85;70.22;;;230.80;2252.80;;;;;;5095313;28;20024;-80
2021/12/10 10:11:59;;;;;;;80.70;57.63;;;230.80;2252.80;;;;;;5094168;28;20027;-85
2021/12/10 10:14:26;;;;;;;84.85;58.65;;;230.80;2252.80;;;;;;5094115;28;20359;-84
2021/12/10 10:16:52;;;;;;;72.75;49.22;;;230.90;2252.80;;;;;;5094164;28;20087;-84
2021/12/10 10:19:18;;;;;;;74.82;54.30;;;230.90;2252.80;;;;;;5094543;28;20364;-82
2021/12/10 10:21:55;;;;;;;81.72;53.55;;;230.80;2252.80;;;;;;5093841;28;20028;-83
2021/12/10 10:24:23;;;;;;;72.72;49.95;;;230.90;2252.80;;;;;;5094100;28;20024;-84
2021/12/10 10:26:55;;;;;;;81.90;58.30;;;230.90;2252.80;;;;;;5093781;28;20026;-87
2021/12/10 10:29:26;;;;;;;72.93;51.97;;;230.80;2252.80;;;;;;5093938;28;20020;-84
2021/12/10 10:31:56;;;;;;;79.38;55.13;;;230.70;2252.80;;;;;;5093321;28;20027;-84
2021/12/10 10:34:23;;;;;;;75.15;54.15;;;230.70;2252.80;;;;;;5093590;28;20048;-84
2021/12/10 10:36:50;;;;;;;67.40;50.55;;;230.70;2252.80;;;;;;5093575;28;20028;-83
2021/12/10 10:39:20;;;;;;;76.53;56.40;;;230.70;2252.80;;;;;;5092803;28;20051;-83
2021/12/10 10:41:51;;;;;;;54.28;39.67;;;230.80;2252.80;;;;;;5093154;28;20077;-83
2021/12/10 10:44:18;;;;;;;68.22;41.53;;;230.80;2252.80;;;;;;5092938;28;20055;-84
2021/12/10 10:46:46;;;;;;;84.00;59.83;;;230.70;2252.80;;;;;;5093321;28;20024;-86
2021/12/10 10:49:45;;;;;;;101.47;72.70;;;230.80;2252.80;;;;;;5093204;28;20090;-83
2021/12/10 10:52:36;;;;;;;68.40;52.42;;;230.90;2252.80;;;;;;5092995;28;20019;-84
2021/12/10 10:55:11;;;;;;;80.65;58.85;;;230.90;2252.80;;;;;;5092279;28;20272;-85
2021/12/10 10:57:52;;;;;;;67.18;48.42;;;230.80;2252.80;;;;;;5093365;28;20043;-86
2021/12/10 11:00:37;;;;;;;57.17;45.55;;;230.80;2252.80;;;;;;5092760;28;20071;-84
2021/12/10 11:03:13;;;;;;;79.70;62.45;;;231.00;2252.80;;;;;;5093160;28;20035;-83
2021/12/10 11:05:50;;;;;;;67.85;50.72;;;231.20;2252.80;;;;;;5092990;28;20016;-83
2021/12/10 11:08:31;;;;;;;72.03;52.28;;;256.10;2252.80;;;;;;5093162;28;20446;-80
2021/12/10 11:11:15;;;;;;;61.90;47.00;;;256.20;2252.80;;;;;;5092703;28;20494;-79
2021/12/10 11:13:45;;;;;;;67.70;51.40;;;256.50;2252.80;;;;;;5092388;28;20471;-77
2021/12/10 11:16:17;;;;;;;68.85;50.92;;;256.60;2252.80;;;;;;5093876;28;20042;-77
2021/12/10 11:18:43;;;;;;;128.43;96.33;;;256.80;2252.80;;;;;;5092670;28;20376;-77
2021/12/10 11:21:10;;;;;;;86.18;66.85;;;256.90;2252.80;;;;;;5093121;28;20036;-78
2021/12/10 11:23:39;;;;;;;86.45;57.83;;;256.90;2252.80;;;;;;5092441;28;20020;-79
2021/12/10 11:26:07;;;;;;;236.30;165.73;;;281.70;2278.40;;;;;;5092514;28;20020;-80
2021/12/10 11:28:36;;;;;;;69.53;52.80;;;281.70;2278.40;;;;;;5092131;28;20472;-79
2021/12/10 11:31:10;;;;;;;74.68;54.28;;;281.70;2278.40;;;;;;5092531;28;20353;-80
2021/12/10 11:33:42;;;;;;;74.47;51.05;;;281.80;2278.40;;;;;;5093068;28;20024;-81
2021/12/10 11:36:13;;;;;;;73.35;53.95;;;281.70;2278.40;;;;;;5092755;28;20024;-82
2021/12/10 11:38:39;;;;;;;72.82;53.60;;;256.90;2252.80;;;;;;5092475;28;20068;-83
2021/12/10 11:41:12;;;;;;;82.22;61.25;;;256.70;2252.80;;;;;;5092323;28;20039;-85
2021/12/10 11:47:01;;;;;;;73.75;53.47;;;256.70;2252.80;;;;;;5093874;28;20252;-83
2021/12/10 11:49:33;;;;;;;81.03;60.35;;;256.90;2252.80;;;;;;5093378;28;20031;-84
2021/12/10 11:51:59;;;;;;;;;;;256.80;2252.80;;;;;;5093204;28;20027;-82
2021/12/10 11:54:38;;;;;;;102.53;74.45;;;256.70;2252.80;;;;;;5092523;28;20251;-84
2021/12/10 11:57:17;;;;;;;92.60;70.22;;;256.70;2252.80;;;;;;5093852;28;20099;-83
2021/12/10 11:59:51;;;;;;;74.63;55.00;;;256.90;2252.80;;;;;;5092278;28;20024;-85
2021/12/10 12:02:38;;;;;;;97.18;67.35;;;256.90;2252.80;;;;;;5092302;28;20028;-86
2021/12/10 12:05:09;;;;;;;300.27;178.95;;;256.90;2252.80;;;;;;5092472;28;20016;-86
2021/12/10 12:07:52;;;;;;;150.95;112.20;;;256.80;2252.80;;;;;;5095866;28;20020;-84
2021/12/10 12:10:31;;;;;;;109.63;79.68;;;256.90;2252.80;;;;;;5096380;28;20031;-85